Strona główna
METAR-TAF:

METAR-TAF

Lotnisko :

Port lotniczy Palembang

Palembang, Indonezja

Szerokość geograficzna: 02-54S, Długość geograficzna: 104-42E, wysokość: 10 m

Aktualna obserwacja pogody

Raport powstał 17 minut temu, godzina 11:30 UTC
Wiatr 10 kt od wschód
Temperatura 29°C
Wilgotność 62%
Ciśnienie 1009 hPa
Widzialność 10 km lub więcej
Mało chmury na wysokości 1000 ft

METAR: WIPP 241130Z 10010KT 9999 FEW010 29/21 Q1009 NOSIG

czas: 18:47 (11:47 UTC)

Prognoza

Raport powstał 47 minut temu, godzina 11:00 UTC
Prognoza ważna od 24 godzina 12 UTC do 25 godzina 12 UTC
Wiatr 10 kt od południowy wschód
Widzialność 10 km lub więcej
Rozproszone chmury na wysokości 1000 ft
Przejściowo
od 24 godzina 21 UTC do 25 godzina 01 UTC
Wiatr 4 kt od południe
Widzialność: 2000 m
zamglenie

TAF: WIPP 241100Z 2412/2512 13010KT 9999 SCT010 TEMPO 2421/2501 19004KT 2000 BR

Obserwacja i prognoza pogody dla ponad 4000 lotnisk (raport METAR i TAF).

Dostępne stacje oznaczono żółtymi i czerwonymi punktami na mapie.

Najedź kursorem aby zobaczyć nazwę stacji.

Kliknij aby zobaczyć obserwacje i prognozy pogody.

Aby zmienić mapę: kliknij na zielony przycisk z czarnym krzyżykiem, aby powiększyć; na zielony przycisk z myślnikiem, aby pomniejszyć; na zielone strzałki, aby przejść do map sąsiednich.


METAR-TAF: